createdAt,value
2023-04-09T00:02:16.275Z,57.13
2023-04-09T00:04:44.028Z,52.63
2023-04-09T00:07:11.872Z,52.88
2023-04-09T00:09:39.452Z,49.50
2023-04-09T00:12:06.896Z,56.70
2023-04-09T00:14:34.426Z,48.42
2023-04-09T00:17:01.882Z,52.90
2023-04-09T00:19:29.283Z,47.47
2023-04-09T00:21:56.956Z,49.95
2023-04-09T00:24:24.466Z,49.97
2023-04-09T00:26:53.600Z,51.58
2023-04-09T00:29:21.256Z,52.60
2023-04-09T00:31:48.863Z,52.50
2023-04-09T00:34:16.687Z,49.75
2023-04-09T00:36:44.177Z,52.60
2023-04-09T00:39:11.758Z,60.47
2023-04-09T00:41:39.257Z,56.72
2023-04-09T00:44:06.802Z,61.20
2023-04-09T00:46:34.378Z,55.00
2023-04-09T00:49:01.929Z,56.92
2023-04-09T00:51:29.408Z,55.53
2023-04-09T00:53:57.087Z,59.80
2023-04-09T00:56:25.697Z,60.78
2023-04-09T00:58:54.463Z,54.40
2023-04-09T01:01:22.166Z,54.85
2023-04-09T01:03:50.086Z,56.70
2023-04-09T01:06:59.699Z,50.97
2023-04-09T01:09:32.485Z,51.25
2023-04-09T01:12:21.693Z,52.75
2023-04-09T01:15:02.858Z,53.90
2023-04-09T01:17:39.842Z,52.45
2023-04-09T01:20:14.900Z,51.13
2023-04-09T01:23:03.634Z,59.50
2023-04-09T01:25:56.503Z,56.50
2023-04-09T01:28:39.541Z,56.10
2023-04-09T01:31:15.811Z,54.15
2023-04-09T01:33:44.171Z,53.97
2023-04-09T01:36:11.745Z,58.35
2023-04-09T01:38:43.499Z,59.13
2023-04-09T01:41:16.043Z,56.70
2023-04-09T01:43:45.658Z,54.83
2023-04-09T01:46:13.633Z,57.92
2023-04-09T01:48:41.830Z,54.58
2023-04-09T01:51:09.826Z,59.00
2023-04-09T01:53:37.431Z,59.20
2023-04-09T01:56:05.748Z,60.30
2023-04-09T01:58:36.950Z,61.13
2023-04-09T02:01:14.496Z,71.97
2023-04-09T02:03:52.517Z,68.75
2023-04-09T02:06:48.647Z,73.75
2023-04-09T02:09:19.283Z,73.13
2023-04-09T02:11:50.110Z,70.30
2023-04-09T02:14:19.248Z,68.95
2023-04-09T02:16:48.954Z,66.53
2023-04-09T02:19:16.634Z,61.45
2023-04-09T02:21:44.643Z,58.60
2023-04-09T02:24:12.226Z,60.40
2023-04-09T02:26:39.763Z,59.17
2023-04-09T02:29:07.246Z,58.55
2023-04-09T02:31:34.872Z,55.17
2023-04-09T02:34:02.478Z,63.28
2023-04-09T02:36:30.021Z,64.45
2023-04-09T02:38:57.575Z,64.20
2023-04-09T02:41:25.066Z,65.47
2023-04-09T02:43:52.548Z,57.50
2023-04-09T02:46:20.168Z,60.97
2023-04-09T02:48:48.507Z,60.22
2023-04-09T02:51:16.025Z,63.53
2023-04-09T02:53:43.575Z,55.38
2023-04-09T02:56:11.245Z,56.30
2023-04-09T02:58:38.772Z,55.38
2023-04-09T03:01:06.408Z,57.13
2023-04-09T03:03:34.219Z,53.38
2023-04-09T03:06:01.800Z,51.08
2023-04-09T03:08:29.356Z,54.40
2023-04-09T03:10:56.836Z,55.15
2023-04-09T03:13:24.379Z,56.53
2023-04-09T03:15:53.333Z,49.00
2023-04-09T03:18:20.982Z,47.17
2023-04-09T03:20:48.578Z,48.30
2023-04-09T03:23:16.729Z,50.28
2023-04-09T03:25:47.308Z,47.05
2023-04-09T03:28:17.430Z,51.83
2023-04-09T03:30:51.776Z,54.70
2023-04-09T03:33:19.792Z,50.60
2023-04-09T03:35:54.373Z,49.10
2023-04-09T03:38:41.989Z,48.30
2023-04-09T03:41:21.780Z,48.88
2023-04-09T03:43:49.400Z,49.63
2023-04-09T03:46:21.566Z,54.25
2023-04-09T03:48:49.604Z,51.55
2023-04-09T03:51:18.039Z,56.08
2023-04-09T03:53:51.831Z,54.03
2023-04-09T03:56:19.600Z,51.67
2023-04-09T03:58:48.623Z,50.25
2023-04-09T04:01:16.776Z,55.55
2023-04-09T04:03:54.530Z,53.53
2023-04-09T04:06:28.551Z,52.50
2023-04-09T04:09:15.590Z,52.28
2023-04-09T04:11:56.002Z,53.53
2023-04-09T04:14:27.025Z,53.15
2023-04-09T04:17:01.563Z,50.75
2023-04-09T04:19:31.296Z,53.35
2023-04-09T04:21:59.144Z,55.05
2023-04-09T04:24:27.062Z,53.30
2023-04-09T04:26:55.106Z,55.30
2023-04-09T04:29:24.497Z,53.58
2023-04-09T04:31:57.537Z,47.60
2023-04-09T04:34:28.707Z,46.72
2023-04-09T04:37:17.244Z,48.88
2023-04-09T04:39:44.934Z,49.17
2023-04-09T04:42:17.018Z,53.42
2023-04-09T04:44:45.765Z,57.80
2023-04-09T04:47:27.191Z,59.08
2023-04-09T04:49:54.821Z,65.30
2023-04-09T04:52:22.934Z,55.55
2023-04-09T04:54:53.222Z,57.60
2023-04-09T04:57:23.658Z,58.83
2023-04-09T04:59:51.553Z,59.67
2023-04-09T05:02:19.932Z,63.53
2023-04-09T05:05:13.762Z,61.25
2023-04-09T05:07:48.204Z,58.72
2023-04-09T05:10:16.053Z,60.08
2023-04-09T05:12:44.581Z,61.60
2023-04-09T05:15:15.012Z,65.28
2023-04-09T05:17:45.692Z,58.78
2023-04-09T05:20:14.821Z,58.60
2023-04-09T05:22:50.641Z,56.83
2023-04-09T05:25:18.472Z,55.30
2023-04-09T05:27:46.109Z,62.22
2023-04-09T05:30:13.742Z,56.42
2023-04-09T05:32:42.466Z,55.70
2023-04-09T05:35:10.330Z,62.63
2023-04-09T05:37:41.375Z,59.35
2023-04-09T05:40:09.472Z,61.97
2023-04-09T05:42:38.100Z,58.80
2023-04-09T05:45:23.588Z,58.05
2023-04-09T05:47:53.833Z,56.97
2023-04-09T05:50:23.699Z,56.20
2023-04-09T05:52:54.342Z,60.72
2023-04-09T05:55:23.438Z,58.63
2023-04-09T05:57:56.294Z,51.67
2023-04-09T06:00:24.033Z,44.78
2023-04-09T06:02:51.632Z,41.38
2023-04-09T06:05:19.287Z,42.08
2023-04-09T06:07:48.381Z,42.47
2023-04-09T06:10:15.988Z,40.00
2023-04-09T06:12:43.512Z,37.90
2023-04-09T06:15:11.482Z,37.83
2023-04-09T06:17:39.069Z,35.63
2023-04-09T06:20:07.272Z,36.72
2023-04-09T06:22:34.767Z,36.80
2023-04-09T06:25:02.398Z,40.65
2023-04-09T06:27:29.988Z,35.70
2023-04-09T06:29:57.564Z,32.60
2023-04-09T06:32:25.330Z,31.35
2023-04-09T06:34:52.823Z,35.47
2023-04-09T06:37:20.459Z,39.35
2023-04-09T06:40:00.590Z,34.10
2023-04-09T06:42:29.086Z,36.95
2023-04-09T06:45:10.924Z,35.83
2023-04-09T06:47:38.428Z,33.03
2023-04-09T06:50:06.488Z,33.95
2023-04-09T06:52:34.035Z,35.03
2023-04-09T06:55:01.514Z,30.10
2023-04-09T06:57:28.982Z,37.10
2023-04-09T06:59:56.643Z,31.83
2023-04-09T07:02:24.315Z,31.77
2023-04-09T07:04:51.984Z,35.47
2023-04-09T07:07:21.074Z,35.20
2023-04-09T07:09:49.102Z,35.80
2023-04-09T07:12:30.524Z,33.13
2023-04-09T07:15:02.364Z,34.00
2023-04-09T07:17:31.333Z,33.42
2023-04-09T07:19:58.878Z,35.75
2023-04-09T07:22:28.694Z,36.90
2023-04-09T07:24:56.723Z,34.63
2023-04-09T07:27:25.394Z,35.92
2023-04-09T07:29:56.362Z,33.97
2023-04-09T07:32:24.607Z,34.35
2023-04-09T07:34:53.178Z,36.17
2023-04-09T07:37:21.273Z,38.55
2023-04-09T07:39:49.964Z,36.35
2023-04-09T07:42:17.523Z,34.38
2023-04-09T07:44:45.170Z,39.35
2023-04-09T07:47:13.041Z,39.38
2023-04-09T07:49:40.615Z,38.67
2023-04-09T07:52:08.321Z,40.28
2023-04-09T07:54:35.900Z,42.10
2023-04-09T07:57:03.658Z,44.10
2023-04-09T07:59:31.807Z,43.78
2023-04-09T08:01:59.969Z,38.13
2023-04-09T08:04:28.100Z,37.70
2023-04-09T08:06:55.888Z,40.72
2023-04-09T08:09:23.412Z,32.60
2023-04-09T08:11:51.653Z,35.05
2023-04-09T08:14:19.260Z,34.40
2023-04-09T08:16:48.127Z,28.92
2023-04-09T08:19:20.301Z,32.42
2023-04-09T08:21:49.728Z,31.88
2023-04-09T08:24:17.519Z,32.72
2023-04-09T08:26:45.157Z,34.75
2023-04-09T08:29:13.839Z,34.67
2023-04-09T08:31:42.023Z,39.92
2023-04-09T08:34:09.711Z,36.65
2023-04-09T08:36:37.296Z,37.95
2023-04-09T08:39:04.912Z,35.35
2023-04-09T08:41:32.576Z,37.50
2023-04-09T08:44:00.901Z,39.78
2023-04-09T08:46:28.842Z,38.53
2023-04-09T08:48:57.281Z,39.17
2023-04-09T08:51:25.203Z,44.13
2023-04-09T08:53:57.076Z,36.15
2023-04-09T08:56:25.144Z,38.55
2023-04-09T08:58:53.536Z,37.75
2023-04-09T09:01:27.788Z,35.33
2023-04-09T09:04:04.588Z,37.92
2023-04-09T09:06:37.272Z,36.50
2023-04-09T09:09:19.119Z,34.55
2023-04-09T09:11:52.538Z,37.22
2023-04-09T09:14:20.515Z,30.85
2023-04-09T09:16:57.900Z,35.95
2023-04-09T09:19:25.776Z,38.88
2023-04-09T09:22:03.763Z,32.45
2023-04-09T09:24:32.749Z,34.20
2023-04-09T09:27:03.406Z,37.25
2023-04-09T09:29:31.951Z,34.40
2023-04-09T09:32:00.898Z,37.00
2023-04-09T09:34:28.433Z,33.95
2023-04-09T09:36:56.071Z,37.50
2023-04-09T09:39:23.524Z,40.83
2023-04-09T09:42:07.854Z,42.78
2023-04-09T09:44:35.394Z,44.67
2023-04-09T09:47:04.903Z,47.08
2023-04-09T09:49:32.457Z,42.15
2023-04-09T09:52:03.006Z,42.80
2023-04-09T09:54:38.892Z,43.83
2023-04-09T09:57:09.871Z,42.35
2023-04-09T10:00:00.864Z,43.40
2023-04-09T10:02:33.002Z,44.92
2023-04-09T10:05:01.443Z,45.63
2023-04-09T10:07:30.326Z,44.08
2023-04-09T10:09:58.903Z,45.10
2023-04-09T10:12:27.405Z,46.22
2023-04-09T10:14:58.545Z,45.15
2023-04-09T10:17:26.684Z,46.50
2023-04-09T10:20:14.636Z,42.25
2023-04-09T10:22:45.673Z,41.75
2023-04-09T10:25:13.320Z,42.05
2023-04-09T10:27:40.885Z,47.45
2023-04-09T10:30:10.803Z,43.60
2023-04-09T10:32:38.569Z,49.65
2023-04-09T10:35:07.074Z,43.58
2023-04-09T10:37:36.006Z,45.63
2023-04-09T10:40:03.970Z,43.75
2023-04-09T10:42:37.364Z,43.90
2023-04-09T10:45:12.434Z,48.75
2023-04-09T10:47:42.932Z,45.88
2023-04-09T10:50:27.993Z,47.85
2023-04-09T10:52:57.579Z,46.42
2023-04-09T10:55:42.693Z,46.70
2023-04-09T10:58:13.712Z,44.42
2023-04-09T11:00:46.569Z,43.92
2023-04-09T11:03:27.924Z,44.38
2023-04-09T11:06:10.340Z,51.88
2023-04-09T11:08:39.089Z,52.00
2023-04-09T11:11:06.706Z,46.75
2023-04-09T11:13:34.726Z,49.85
2023-04-09T11:16:07.033Z,49.58
2023-04-09T11:18:35.690Z,50.22
2023-04-09T11:21:04.532Z,46.65
2023-04-09T11:23:33.198Z,47.15
2023-04-09T11:26:02.094Z,48.33
2023-04-09T11:28:29.661Z,51.15
2023-04-09T11:30:57.081Z,50.10
2023-04-09T11:33:32.352Z,50.58
2023-04-09T11:35:59.911Z,51.63
2023-04-09T11:38:27.382Z,51.35
2023-04-09T11:40:58.167Z,46.90
2023-04-09T11:43:25.864Z,51.75
2023-04-09T11:45:53.965Z,45.65
2023-04-09T11:48:24.377Z,47.95
2023-04-09T11:50:52.811Z,42.78
2023-04-09T11:53:22.028Z,43.10
2023-04-09T11:55:53.479Z,45.75
2023-04-09T11:58:28.128Z,43.15
2023-04-09T12:00:56.613Z,41.63
2023-04-09T12:03:34.213Z,38.67
2023-04-09T12:06:03.455Z,37.08
2023-04-09T12:08:31.594Z,35.95
2023-04-09T12:11:09.482Z,35.33
2023-04-09T12:13:37.122Z,37.70
2023-04-09T12:16:05.796Z,38.00
2023-04-09T12:18:37.542Z,33.17
2023-04-09T12:21:06.239Z,35.22
2023-04-09T12:23:33.766Z,34.85
2023-04-09T12:26:02.293Z,35.63
2023-04-09T12:28:30.001Z,35.40
2023-04-09T12:30:59.679Z,36.97
2023-04-09T12:33:27.535Z,39.70
2023-04-09T12:35:56.199Z,37.42
2023-04-09T12:38:23.743Z,36.13
2023-04-09T12:40:51.297Z,35.35
2023-04-09T12:43:18.785Z,32.80
2023-04-09T12:45:47.039Z,33.97
2023-04-09T12:48:14.574Z,28.05
2023-04-09T12:50:42.105Z,31.58
2023-04-09T12:53:09.567Z,30.42
2023-04-09T12:55:37.033Z,31.42
2023-04-09T12:58:04.505Z,27.63
2023-04-09T13:00:33.584Z,28.13
2023-04-09T13:03:01.488Z,33.03
2023-04-09T13:05:31.597Z,33.70
2023-04-09T13:07:59.196Z,35.47
2023-04-09T13:10:26.792Z,33.92
2023-04-09T13:12:54.254Z,35.78
2023-04-09T13:15:22.195Z,32.70
2023-04-09T13:17:49.790Z,29.75
2023-04-09T13:20:17.363Z,35.15
2023-04-09T13:22:49.016Z,29.48
2023-04-09T13:25:16.821Z,29.42
2023-04-09T13:27:44.508Z,27.67
2023-04-09T13:30:12.149Z,26.38
2023-04-09T13:32:39.709Z,25.67
2023-04-09T13:35:07.730Z,26.48
2023-04-09T13:37:35.406Z,26.90
2023-04-09T13:40:02.933Z,24.90
2023-04-09T13:42:31.885Z,31.20
2023-04-09T13:44:59.356Z,30.00
2023-04-09T13:47:27.304Z,32.50
2023-04-09T13:49:54.772Z,28.55
2023-04-09T13:52:22.284Z,30.90
2023-04-09T13:54:49.835Z,27.55
2023-04-09T13:57:17.460Z,31.85
2023-04-09T13:59:44.936Z,29.70
2023-04-09T14:02:12.661Z,30.42
2023-04-09T14:04:40.593Z,29.70
2023-04-09T14:07:08.602Z,28.42
2023-04-09T14:09:36.089Z,28.08
2023-04-09T14:12:03.690Z,31.33
2023-04-09T14:14:31.368Z,27.25
2023-04-09T14:16:58.874Z,30.17
2023-04-09T14:19:26.425Z,29.42
2023-04-09T14:21:55.402Z,26.48
2023-04-09T14:24:23.404Z,28.48
2023-04-09T14:26:53.606Z,28.20
2023-04-09T14:29:22.212Z,128.13
2023-04-09T14:31:49.889Z,186.73
2023-04-09T14:34:17.472Z,138.85
2023-04-09T14:36:44.992Z,33.42
2023-04-09T14:39:12.394Z,31.77
2023-04-09T14:41:39.929Z,28.33
2023-04-09T14:44:07.732Z,31.05
2023-04-09T14:46:36.827Z,34.33
2023-04-09T14:49:04.345Z,30.80
2023-04-09T14:51:31.844Z,28.00
2023-04-09T14:53:59.737Z,28.33
2023-04-09T14:56:27.550Z,28.85
2023-04-09T14:58:55.116Z,31.38
2023-04-09T15:01:22.810Z,28.58
2023-04-09T15:03:50.793Z,40.08
2023-04-09T15:06:18.433Z,36.05
2023-04-09T15:08:45.922Z,29.67
2023-04-09T15:11:17.461Z,30.42
2023-04-09T15:13:45.355Z,29.17
2023-04-09T15:16:22.033Z,32.13
2023-04-09T15:18:52.189Z,28.88
2023-04-09T15:21:20.895Z,30.63
2023-04-09T15:23:51.100Z,32.78
2023-04-09T15:26:18.713Z,29.13
2023-04-09T15:28:46.428Z,29.45
2023-04-09T15:31:13.920Z,21.63
2023-04-09T15:33:45.636Z,20.83
2023-04-09T15:36:13.243Z,19.90
2023-04-09T15:38:42.083Z,21.15
2023-04-09T15:41:10.640Z,24.65
2023-04-09T15:43:38.201Z,22.83
2023-04-09T15:46:10.084Z,26.10
2023-04-09T15:48:38.135Z,25.15
2023-04-09T15:51:05.989Z,24.70
2023-04-09T15:53:33.644Z,24.88
2023-04-09T15:56:01.181Z,25.90
2023-04-09T15:58:28.995Z,23.70
2023-04-09T16:00:56.503Z,20.42
2023-04-09T16:03:23.964Z,20.50
2023-04-09T16:05:51.598Z,19.23
2023-04-09T16:08:19.087Z,17.90
2023-04-09T16:10:46.552Z,15.85
2023-04-09T16:13:14.240Z,17.00
2023-04-09T16:15:41.658Z,17.35
2023-04-09T16:18:10.280Z,16.70
2023-04-09T16:20:37.798Z,20.17
2023-04-09T16:23:05.504Z,20.58
2023-04-09T16:25:32.930Z,19.05
2023-04-09T16:28:00.436Z,19.27
2023-04-09T16:30:28.482Z,16.25
2023-04-09T16:32:56.726Z,16.90
2023-04-09T16:35:24.284Z,12.45
2023-04-09T16:37:52.070Z,21.50
2023-04-09T16:40:24.429Z,17.23
2023-04-09T16:42:52.040Z,16.52
2023-04-09T16:45:19.595Z,15.05
2023-04-09T16:47:50.854Z,16.00
2023-04-09T16:50:20.752Z,18.52
2023-04-09T16:52:48.631Z,17.90
2023-04-09T16:55:16.813Z,22.08
2023-04-09T16:57:44.334Z,21.27
2023-04-09T17:00:12.994Z,25.65
2023-04-09T17:02:40.608Z,22.30
2023-04-09T17:05:09.061Z,21.95
2023-04-09T17:07:36.574Z,21.75
2023-04-09T17:10:04.436Z,26.88
2023-04-09T17:12:32.628Z,25.52
2023-04-09T17:15:01.061Z,24.55
2023-04-09T17:17:28.537Z,26.15
2023-04-09T17:19:58.544Z,22.38
2023-04-09T17:22:26.109Z,24.48
2023-04-09T17:24:53.976Z,23.20
2023-04-09T17:27:21.911Z,24.23
2023-04-09T17:29:49.497Z,23.00
2023-04-09T17:32:16.965Z,23.58
2023-04-09T17:34:47.543Z,26.40
2023-04-09T17:37:15.143Z,22.88
2023-04-09T17:39:42.616Z,23.70
2023-04-09T17:42:11.950Z,23.83
2023-04-09T17:44:39.425Z,22.45
2023-04-09T17:47:07.596Z,21.33
2023-04-09T17:49:35.136Z,21.20
2023-04-09T17:52:02.565Z,20.65
2023-04-09T17:54:38.219Z,22.45
2023-04-09T17:57:07.348Z,20.70
2023-04-09T17:59:34.884Z,27.20
2023-04-09T18:02:03.703Z,27.33
2023-04-09T18:04:31.965Z,24.42
2023-04-09T18:06:59.694Z,27.17
2023-04-09T18:09:27.194Z,30.20
2023-04-09T18:11:56.576Z,26.02
2023-04-09T18:14:24.195Z,24.77
2023-04-09T18:16:52.051Z,27.38
2023-04-09T18:19:19.593Z,30.10
2023-04-09T18:21:47.499Z,28.48
2023-04-09T18:24:15.213Z,29.48
2023-04-09T18:26:42.718Z,26.70
2023-04-09T18:29:10.360Z,27.48
2023-04-09T18:31:37.874Z,27.05
2023-04-09T18:34:05.839Z,29.30
2023-04-09T18:36:33.687Z,28.10
2023-04-09T18:39:01.310Z,26.30
2023-04-09T18:41:30.222Z,28.20
2023-04-09T18:43:57.674Z,25.42
2023-04-09T18:46:25.257Z,22.33
2023-04-09T18:48:53.014Z,23.10
2023-04-09T18:51:21.159Z,21.20
2023-04-09T18:53:53.075Z,28.05
2023-04-09T18:56:21.427Z,25.17
2023-04-09T18:58:48.929Z,26.95
2023-04-09T19:01:17.704Z,23.52
2023-04-09T19:03:45.907Z,23.88
2023-04-09T19:06:18.420Z,20.83
2023-04-09T19:08:46.880Z,19.92
2023-04-09T19:11:14.622Z,23.98
2023-04-09T19:13:42.106Z,24.98
2023-04-09T19:16:09.709Z,22.08
2023-04-09T19:18:37.612Z,24.80
2023-04-09T19:21:07.560Z,24.98
2023-04-09T19:23:35.466Z,24.20
2023-04-09T19:26:03.439Z,25.33
2023-04-09T19:28:31.209Z,25.95
2023-04-09T19:31:00.644Z,24.70
2023-04-09T19:33:29.481Z,25.45
2023-04-09T19:35:57.126Z,28.00
2023-04-09T19:38:24.609Z,25.88
2023-04-09T19:40:52.084Z,23.95
2023-04-09T19:43:19.614Z,24.75
2023-04-09T19:45:47.116Z,22.67
2023-04-09T19:48:14.694Z,23.95
2023-04-09T19:50:43.363Z,21.65
2023-04-09T19:53:11.159Z,18.83
2023-04-09T19:55:39.324Z,19.50
2023-04-09T19:58:07.324Z,20.35
2023-04-09T20:00:34.929Z,20.02
2023-04-09T20:03:03.300Z,25.33
2023-04-09T20:05:31.023Z,26.27
2023-04-09T20:07:58.402Z,26.90
2023-04-09T20:10:26.072Z,26.70
2023-04-09T20:12:54.068Z,24.38
2023-04-09T20:15:21.535Z,23.33
2023-04-09T20:17:49.900Z,21.77
2023-04-09T20:20:19.964Z,22.10
2023-04-09T20:22:56.258Z,22.08
2023-04-09T20:25:24.959Z,24.05
2023-04-09T20:27:53.394Z,26.90
2023-04-09T20:30:21.305Z,21.63
2023-04-09T20:32:49.297Z,22.45
2023-04-09T20:35:17.067Z,24.00
2023-04-09T20:37:44.572Z,23.85
2023-04-09T20:40:12.369Z,24.75
2023-04-09T20:42:42.559Z,25.02
2023-04-09T20:45:10.721Z,24.35
2023-04-09T20:47:38.309Z,24.23
2023-04-09T20:50:06.130Z,21.88
2023-04-09T20:52:33.568Z,22.35
2023-04-09T20:55:01.233Z,21.02
2023-04-09T20:57:28.992Z,19.33
2023-04-09T20:59:56.430Z,20.50
2023-04-09T21:02:24.085Z,21.60
2023-04-09T21:04:51.751Z,18.80
2023-04-09T21:07:19.269Z,20.08
2023-04-09T21:09:47.102Z,19.40
2023-04-09T21:12:14.574Z,20.42
2023-04-09T21:14:42.144Z,20.77
2023-04-09T21:17:09.898Z,23.08
2023-04-09T21:19:37.384Z,21.00
2023-04-09T21:22:05.029Z,20.02
2023-04-09T21:24:34.193Z,25.08
2023-04-09T21:27:01.910Z,20.75
2023-04-09T21:29:29.389Z,20.52
2023-04-09T21:31:57.290Z,21.83
2023-04-09T21:34:24.849Z,21.27
2023-04-09T21:36:52.478Z,21.35
2023-04-09T21:39:19.963Z,21.38
2023-04-09T21:41:47.646Z,18.60
2023-04-09T21:44:15.104Z,20.65
2023-04-09T21:46:43.137Z,18.85
2023-04-09T21:49:11.171Z,18.55
2023-04-09T21:51:39.058Z,21.10
2023-04-09T21:54:10.229Z,18.63
2023-04-09T21:56:38.936Z,21.17
2023-04-09T21:59:06.422Z,19.33
2023-04-09T22:01:35.116Z,20.23
2023-04-09T22:04:03.154Z,22.17
2023-04-09T22:06:31.197Z,21.58
2023-04-09T22:08:58.932Z,20.52
2023-04-09T22:11:28.105Z,23.27
2023-04-09T22:13:57.440Z,19.02
2023-04-09T22:16:26.367Z,23.67
2023-04-09T22:18:54.892Z,19.58
2023-04-09T22:21:22.757Z,21.52
2023-04-09T22:23:50.474Z,24.20
2023-04-09T22:26:17.965Z,21.67
2023-04-09T22:28:45.716Z,22.80
2023-04-09T22:31:13.661Z,23.33
2023-04-09T22:33:41.640Z,23.20
2023-04-09T22:36:09.104Z,24.08
2023-04-09T22:38:37.008Z,23.95
2023-04-09T22:41:04.723Z,22.65
2023-04-09T22:43:32.198Z,20.40
2023-04-09T22:45:59.791Z,21.73
2023-04-09T22:48:29.031Z,22.27
2023-04-09T22:50:57.882Z,21.75
2023-04-09T22:53:25.530Z,21.27
2023-04-09T22:55:54.963Z,24.67
2023-04-09T23:02:10.072Z,21.38
2023-04-09T23:04:37.803Z,25.02
2023-04-09T23:07:05.383Z,23.85
2023-04-09T23:09:32.913Z,21.48
2023-04-09T23:12:02.310Z,21.83
2023-04-09T23:14:29.781Z,24.67
2023-04-09T23:16:58.075Z,26.60
2023-04-09T23:19:25.542Z,26.60
2023-04-09T23:21:53.030Z,28.42
2023-04-09T23:24:20.481Z,26.42
2023-04-09T23:26:48.070Z,24.40
2023-04-09T23:29:15.459Z,28.00
2023-04-09T23:31:43.003Z,25.50
2023-04-09T23:34:10.778Z,26.45
2023-04-09T23:36:38.385Z,27.48
2023-04-09T23:39:06.230Z,28.15
2023-04-09T23:41:33.690Z,28.92
2023-04-09T23:44:01.141Z,27.35
2023-04-09T23:46:29.736Z,30.27
2023-04-09T23:48:57.356Z,27.80
2023-04-09T23:51:24.880Z,27.45
2023-04-09T23:53:52.645Z,26.02
2023-04-09T23:56:20.324Z,24.58
2023-04-09T23:58:47.837Z,24.55
